Time;durP1;ratioP1;P1;durP2;ratioP2;P2;SDS_P1;SDS_P2;PMS_P1;PMS_P2;Temp;Humidity;BMP_temperature;BMP_pressure;BME280_temperature;BME280_humidity;BME280_pressure;Samples;Min_cycle;Max_cycle;Signal;HPM_P1;HPM_P2
2020/12/17 00:02:01;;;;;;;22.33;14.98;;;8.50;99.90;;;;;;5013644;28;20092;-82
2020/12/17 00:04:27;;;;;;;20.15;14.98;;;8.40;99.90;;;;;;5005011;28;20056;-83
2020/12/17 00:06:54;;;;;;;19.40;14.60;;;8.40;99.90;;;;;;5014268;28;20092;-81
2020/12/17 00:09:40;;;;;;;19.20;15.05;;;8.40;99.90;;;;;;5027533;28;20092;-82
2020/12/17 00:12:06;;;;;;;19.70;15.25;;;8.30;99.90;;;;;;5030533;28;20077;-81
2020/12/17 00:14:31;;;;;;;20.27;14.68;;;8.30;99.90;;;;;;5031246;28;20041;-82
2020/12/17 00:16:58;;;;;;;21.95;16.05;;;8.30;99.90;;;;;;5032321;28;20400;-81
2020/12/17 00:19:24;;;;;;;24.77;14.88;;;8.30;99.90;;;;;;5014435;28;20057;-81
2020/12/17 00:22:09;;;;;;;22.88;15.93;;;8.30;99.90;;;;;;5017524;28;20053;-81
2020/12/17 00:24:35;;;;;;;20.58;15.30;;;8.30;99.90;;;;;;5028139;28;20397;-81
2020/12/17 00:27:01;;;;;;;22.98;16.02;;;8.30;99.90;;;;;;5014180;28;20045;-82
2020/12/17 00:29:47;;;;;;;24.08;16.55;;;8.30;99.90;;;;;;5015869;28;20457;-82
2020/12/17 00:32:13;;;;;;;25.13;15.75;;;8.30;99.90;;;;;;5031633;28;20132;-82
2020/12/17 00:34:39;;;;;;;21.45;15.98;;;8.30;99.90;;;;;;5013370;28;20068;-82
2020/12/17 00:37:05;;;;;;;21.75;16.17;;;8.30;99.90;;;;;;5013909;28;20073;-81
2020/12/17 00:39:30;;;;;;;23.73;16.60;;;8.30;99.90;;;;;;5031137;28;20046;-84
2020/12/17 00:41:56;;;;;;;21.27;16.08;;;8.30;99.90;;;;;;5013655;28;20464;-82
2020/12/17 00:44:22;;;;;;;20.13;15.23;;;8.30;99.90;;;;;;5031676;28;20041;-83
2020/12/17 00:46:51;;;;;;;24.05;16.27;;;8.30;99.90;;;;;;5030545;28;20052;-82
2020/12/17 00:49:17;;;;;;;19.63;15.57;;;8.30;99.90;;;;;;5014164;28;20060;-82
2020/12/17 00:51:43;;;;;;;20.67;15.82;;;8.30;99.90;;;;;;5028826;28;20037;-82
2020/12/17 00:54:09;;;;;;;25.88;17.08;;;8.30;99.90;;;;;;5031572;28;20037;-81
2020/12/17 00:56:34;;;;;;;22.08;16.27;;;8.40;99.90;;;;;;5030637;28;20111;-83
2020/12/17 00:59:00;;;;;;;23.75;16.25;;;8.30;99.90;;;;;;5030338;28;20099;-81
2020/12/17 01:01:26;;;;;;;22.48;16.58;;;8.40;99.90;;;;;;5028064;28;20452;-81
2020/12/17 01:04:12;;;;;;;25.95;17.58;;;8.30;99.90;;;;;;5016549;28;20045;-80
2020/12/17 01:06:38;;;;;;;22.75;15.77;;;8.30;99.90;;;;;;5025622;28;20061;-81
2020/12/17 01:09:04;;;;;;;23.10;16.05;;;8.40;99.90;;;;;;5029668;28;20477;-82
2020/12/17 01:11:30;;;;;;;22.88;16.33;;;8.40;99.90;;;;;;5030631;28;20045;-80
2020/12/17 01:13:56;;;;;;;31.95;18.10;;;8.40;99.90;;;;;;5012551;28;20049;-81
2020/12/17 01:16:22;;;;;;;22.85;15.73;;;8.40;99.90;;;;;;5029626;28;20041;-82
2020/12/17 01:18:49;;;;;;;21.75;16.38;;;8.40;99.90;;;;;;5027378;28;20034;-81
2020/12/17 01:21:15;;;;;;;23.08;16.48;;;8.40;99.90;;;;;;5027658;28;20059;-81
2020/12/17 01:23:41;;;;;;;21.02;15.90;;;8.40;99.90;;;;;;5028662;28;20553;-81
2020/12/17 01:26:08;;;;;;;22.25;16.27;;;8.40;99.90;;;;;;5030769;28;20045;-81
2020/12/17 01:28:35;;;;;;;24.95;16.20;;;8.40;99.90;;;;;;5029835;28;20045;-83
2020/12/17 01:31:21;;;;;;;24.48;16.85;;;8.40;99.90;;;;;;5029446;28;20052;-80
2020/12/17 01:33:47;;;;;;;28.80;16.45;;;8.40;99.90;;;;;;5011878;28;20108;-82
2020/12/17 01:36:13;;;;;;;24.08;15.95;;;8.40;99.90;;;;;;5028417;28;20049;-81
2020/12/17 01:38:40;;;;;;;26.67;16.27;;;8.50;99.90;;;;;;5027234;28;20052;-82
2020/12/17 01:41:08;;;;;;;24.27;16.90;;;8.40;99.90;;;;;;5028664;28;20295;-82
2020/12/17 01:43:42;;;;;;;21.25;16.45;;;8.50;99.90;;;;;;5028353;28;20045;-80
2020/12/17 01:46:10;;;;;;;24.00;16.85;;;8.50;99.90;;;;;;5028046;28;20029;-81
2020/12/17 01:48:36;;;;;;;26.15;16.77;;;8.50;99.90;;;;;;5029328;28;20100;-82
2020/12/17 01:51:03;;;;;;;23.40;16.42;;;8.50;99.90;;;;;;5027996;28;20549;-80
2020/12/17 01:53:36;;;;;;;21.92;16.20;;;8.50;99.90;;;;;;5029889;28;20037;-80
2020/12/17 01:56:02;;;;;;;21.02;15.38;;;8.50;99.90;;;;;;5028082;28;20045;-81
2020/12/17 01:58:33;;;;;;;22.83;15.88;;;8.50;99.90;;;;;;5028623;28;20111;-80
2020/12/17 02:01:01;;;;;;;20.17;14.82;;;8.50;99.90;;;;;;5027507;28;20465;-80
2020/12/17 02:03:46;;;;;;;24.17;16.77;;;8.50;99.90;;;;;;5012305;28;20390;-80
2020/12/17 02:06:12;;;;;;;23.38;16.67;;;8.50;99.90;;;;;;5028870;28;20060;-80
2020/12/17 02:08:39;;;;;;;25.45;17.02;;;8.50;99.90;;;;;;5004855;28;20037;-82
2020/12/17 02:11:11;;;;;;;24.77;17.48;;;8.50;99.90;;;;;;5027661;28;20045;-81
2020/12/17 02:13:37;;;;;;;24.08;17.75;;;8.50;99.90;;;;;;5027846;28;20490;-82
2020/12/17 02:16:06;;;;;;;24.58;16.58;;;8.50;99.90;;;;;;5027396;28;20043;-82
2020/12/17 02:18:33;;;;;;;24.27;16.88;;;8.50;99.90;;;;;;5028285;28;20060;-81
2020/12/17 02:21:01;;;;;;;24.80;16.98;;;8.50;99.90;;;;;;5027424;28;20037;-81
2020/12/17 02:23:47;;;;;;;26.13;16.88;;;8.50;99.90;;;;;;5000826;28;20124;-81
2020/12/17 02:26:33;;;;;;;26.48;17.40;;;8.50;99.90;;;;;;5001220;28;20080;-81
2020/12/17 02:29:20;;;;;;;26.77;18.25;;;8.50;99.90;;;;;;5008894;28;20076;-82
2020/12/17 02:31:46;;;;;;;24.65;17.20;;;8.50;99.90;;;;;;5029197;28;20045;-81
2020/12/17 02:34:13;;;;;;;26.42;17.75;;;8.50;99.90;;;;;;5028347;28;20139;-81
2020/12/17 02:36:58;;;;;;;26.27;17.45;;;8.40;99.90;;;;;;5013617;28;20052;-81
2020/12/17 02:39:24;;;;;;;25.15;16.70;;;8.40;99.90;;;;;;5011786;28;20045;-82
2020/12/17 02:41:50;;;;;;;29.50;18.48;;;8.40;99.90;;;;;;5028593;28;20037;-81
2020/12/17 02:51:18;;;;;;;23.98;16.10;;;8.40;99.90;;;;;;5618661;24;20158;-84
2020/12/17 02:54:05;;;;;;;27.48;17.35;;;8.40;99.90;;;;;;4763954;30;20067;-82
2020/12/17 02:56:30;;;;;;;27.17;16.73;;;8.50;99.90;;;;;;4768453;30;20047;-82
2020/12/17 02:58:56;;;;;;;23.15;16.60;;;8.40;99.90;;;;;;4767360;30;20047;-83
2020/12/17 03:01:22;;;;;;;27.27;17.48;;;8.40;99.90;;;;;;4753365;30;20050;-81
2020/12/17 03:03:47;;;;;;;27.27;17.17;;;8.50;99.90;;;;;;4784595;30;20051;-82
2020/12/17 03:06:13;;;;;;;28.70;17.90;;;8.40;99.90;;;;;;4783746;30;20051;-82
2020/12/17 03:08:59;;;;;;;27.83;17.92;;;8.30;99.90;;;;;;4757956;30;20095;-83
2020/12/17 03:11:25;;;;;;;30.00;18.58;;;8.40;99.90;;;;;;4767707;30;20166;-82
2020/12/17 03:14:11;;;;;;;30.13;18.15;;;8.30;99.90;;;;;;4769308;30;20055;-82
2020/12/17 03:16:36;;;;;;;26.88;16.70;;;8.30;99.90;;;;;;4767857;30;20048;-82
2020/12/17 03:19:02;;;;;;;35.65;18.55;;;8.30;99.90;;;;;;4767060;30;20111;-82
2020/12/17 03:21:29;;;;;;;30.33;17.27;;;8.40;99.90;;;;;;4784623;30;20062;-82
2020/12/17 03:23:54;;;;;;;28.88;19.17;;;8.30;99.90;;;;;;4767619;30;20109;-84
2020/12/17 03:26:20;;;;;;;30.38;18.08;;;8.30;99.90;;;;;;4752883;30;20059;-82
2020/12/17 03:28:46;;;;;;;30.23;18.80;;;8.30;99.90;;;;;;4767491;30;20051;-81
2020/12/17 03:31:11;;;;;;;29.13;18.90;;;8.20;99.90;;;;;;4767461;30;20055;-82
2020/12/17 03:33:37;;;;;;;32.63;19.60;;;8.20;99.90;;;;;;4784066;30;20527;-82
2020/12/17 03:36:04;;;;;;;39.38;19.98;;;8.20;99.90;;;;;;4752469;30;20059;-82
2020/12/17 03:38:29;;;;;;;29.30;19.08;;;8.20;99.90;;;;;;4784105;30;20051;-82
2020/12/17 03:40:55;;;;;;;34.45;19.42;;;8.20;99.90;;;;;;4783842;30;20059;-84
2020/12/17 03:43:21;;;;;;;30.40;19.52;;;8.20;99.90;;;;;;4767550;30;20051;-82
2020/12/17 03:45:47;;;;;;;36.28;20.40;;;8.20;99.90;;;;;;4753276;30;20466;-82
2020/12/17 03:48:12;;;;;;;32.10;19.98;;;8.20;99.90;;;;;;4767298;30;20051;-82
2020/12/17 03:50:58;;;;;;;36.85;20.67;;;8.20;99.90;;;;;;4769940;30;20055;-84
2020/12/17 03:53:24;;;;;;;33.17;20.50;;;8.20;99.90;;;;;;4783154;30;20055;-82
2020/12/17 03:55:50;;;;;;;33.55;19.83;;;8.20;99.90;;;;;;4768308;30;20051;-82
2020/12/17 03:58:16;;;;;;;33.78;20.80;;;8.20;99.90;;;;;;4767373;29;20043;-82
2020/12/17 04:00:41;;;;;;;43.25;20.60;;;8.20;99.90;;;;;;4771363;30;20047;-81
2020/12/17 04:03:07;;;;;;;31.75;20.10;;;8.20;99.90;;;;;;4770103;30;20055;-82
2020/12/17 04:05:33;;;;;;;35.78;20.95;;;8.10;99.90;;;;;;4787236;30;20053;-82
2020/12/17 04:07:59;;;;;;;35.83;20.50;;;8.10;99.90;;;;;;4770577;30;20047;-84
2020/12/17 04:10:45;;;;;;;34.47;20.30;;;8.10;99.90;;;;;;4761696;30;20116;-81
2020/12/17 04:13:10;;;;;;;37.88;19.75;;;8.10;99.90;;;;;;4770075;30;20085;-81
2020/12/17 04:15:36;;;;;;;35.13;20.55;;;8.10;99.90;;;;;;4786673;30;20127;-82
2020/12/17 04:18:02;;;;;;;37.75;20.23;;;8.10;99.90;;;;;;4786401;30;20496;-83
2020/12/17 04:20:47;;;;;;;33.15;20.05;;;8.10;99.90;;;;;;4760700;30;20146;-83
2020/12/17 04:23:13;;;;;;;32.80;19.67;;;8.10;99.90;;;;;;4740259;30;20133;-82
2020/12/17 04:25:39;;;;;;;40.33;22.95;;;8.10;99.90;;;;;;4794151;29;20111;-84
2020/12/17 04:28:05;;;;;;;38.33;22.85;;;8.10;99.90;;;;;;4802964;29;20061;-81
2020/12/17 04:30:30;;;;;;;38.53;20.95;;;8.10;99.90;;;;;;4788812;29;20116;-81
2020/12/17 04:32:56;;;;;;;34.97;21.55;;;8.10;99.90;;;;;;4786485;29;20058;-83
2020/12/17 04:35:22;;;;;;;34.00;20.23;;;8.10;99.90;;;;;;4755235;30;20036;-81
2020/12/17 04:37:48;;;;;;;37.90;20.38;;;8.20;99.90;;;;;;4785495;30;20047;-82
2020/12/17 04:40:14;;;;;;;33.38;20.55;;;8.10;99.90;;;;;;4769970;30;20511;-82
2020/12/17 04:43:01;;;;;;;30.77;20.73;;;8.10;99.90;;;;;;4773065;30;20052;-86
2020/12/17 04:45:47;;;;;;;35.53;20.30;;;8.10;99.90;;;;;;4760751;30;20329;-83
2020/12/17 04:48:33;;;;;;;41.67;22.35;;;8.10;99.90;;;;;;4760828;30;20420;-82
2020/12/17 04:50:59;;;;;;;39.22;21.75;;;8.10;99.90;;;;;;4785465;30;20484;-82
2020/12/17 04:53:25;;;;;;;40.58;21.80;;;8.10;99.90;;;;;;4785375;30;20621;-82
2020/12/17 04:55:54;;;;;;;40.35;21.98;;;8.10;99.90;;;;;;4786414;30;20102;-82
2020/12/17 04:58:21;;;;;;;39.33;22.70;;;8.20;99.90;;;;;;4785648;30;20055;-81
2020/12/17 05:00:56;;;;;;;37.83;22.45;;;8.20;99.90;;;;;;4770499;30;20055;-82
2020/12/17 05:03:23;;;;;;;39.55;22.13;;;8.20;99.90;;;;;;4785586;30;20244;-83
2020/12/17 05:05:52;;;;;;;38.60;21.60;;;8.10;99.90;;;;;;4770323;30;20048;-81
2020/12/17 05:08:21;;;;;;;37.35;21.98;;;8.10;99.90;;;;;;4784786;30;20492;-82
2020/12/17 05:10:50;;;;;;;36.88;20.15;;;8.10;99.90;;;;;;4769610;30;20118;-83
2020/12/17 05:13:17;;;;;;;40.85;21.52;;;8.20;99.90;;;;;;4769977;30;20085;-82
2020/12/17 05:16:03;;;;;;;44.10;22.88;;;8.10;99.90;;;;;;4760467;30;20096;-84
2020/12/17 05:18:49;;;;;;;37.53;21.25;;;8.20;99.90;;;;;;4747454;30;20504;-82
2020/12/17 05:21:14;;;;;;;39.58;21.35;;;8.10;99.90;;;;;;4751249;30;20206;-82
2020/12/17 05:24:00;;;;;;;34.20;19.30;;;8.20;99.90;;;;;;4754893;30;20056;-82
2020/12/17 05:26:47;;;;;;;40.25;21.52;;;8.20;99.90;;;;;;4754965;30;20055;-81
2020/12/17 05:29:13;;;;;;;33.47;18.70;;;8.30;99.90;;;;;;4782298;30;20377;-82
2020/12/17 05:31:39;;;;;;;36.67;18.27;;;8.20;99.90;;;;;;4754899;30;20067;-82
2020/12/17 05:34:06;;;;;;;35.40;19.80;;;8.20;99.90;;;;;;4785467;30;20112;-85
2020/12/17 05:36:33;;;;;;;32.95;18.95;;;8.20;99.90;;;;;;4784413;30;20059;-82
2020/12/17 05:39:21;;;;;;;42.00;20.40;;;8.30;99.90;;;;;;4759053;30;20094;-81
2020/12/17 05:41:49;;;;;;;36.55;21.45;;;8.30;99.90;;;;;;4769396;30;20138;-83
2020/12/17 05:44:20;;;;;;;42.10;22.48;;;8.20;99.90;;;;;;4768708;30;20054;-82
2020/12/17 05:46:49;;;;;;;37.85;21.40;;;8.30;99.90;;;;;;4785643;30;20050;-81
2020/12/17 05:49:24;;;;;;;34.97;20.58;;;8.30;99.90;;;;;;4784456;30;20062;-81
2020/12/17 05:52:08;;;;;;;39.67;21.75;;;8.30;99.90;;;;;;4769250;30;20181;-81
2020/12/17 05:54:34;;;;;;;44.67;22.98;;;8.20;99.90;;;;;;4785229;30;20509;-81
2020/12/17 05:57:12;;;;;;;39.80;22.17;;;8.30;99.90;;;;;;4785531;30;20138;-81
2020/12/17 05:59:39;;;;;;;36.95;21.52;;;8.30;99.90;;;;;;4768827;30;20052;-81
2020/12/17 06:02:29;;;;;;;39.72;21.50;;;8.30;99.90;;;;;;4785446;30;20057;-81
2020/12/17 06:05:22;;;;;;;43.55;21.80;;;8.40;99.90;;;;;;4768992;30;21103;-81
2020/12/17 06:08:16;;;;;;;37.70;21.15;;;8.30;99.90;;;;;;4758657;30;20134;-84
2020/12/17 06:10:47;;;;;;;44.17;22.50;;;8.40;99.90;;;;;;4785175;30;20069;-81
2020/12/17 06:13:15;;;;;;;41.63;22.90;;;8.30;99.90;;;;;;4768315;30;20480;-81
2020/12/17 06:15:44;;;;;;;35.38;21.55;;;8.40;99.90;;;;;;4784964;30;20047;-81
2020/12/17 06:18:11;;;;;;;41.83;22.67;;;8.40;99.90;;;;;;4784083;30;20081;-83
2020/12/17 06:20:38;;;;;;;43.58;23.10;;;8.40;99.90;;;;;;4784794;30;20047;-81
2020/12/17 06:23:08;;;;;;;43.95;22.67;;;8.40;99.90;;;;;;4784930;29;20138;-82
2020/12/17 06:25:56;;;;;;;43.63;24.08;;;8.40;99.90;;;;;;4759153;30;20103;-81
2020/12/17 06:28:37;;;;;;;44.03;23.23;;;8.40;99.90;;;;;;4784098;30;20750;-81
2020/12/17 06:31:04;;;;;;;41.75;22.70;;;8.40;99.90;;;;;;4784790;30;20055;-81
2020/12/17 06:33:35;;;;;;;46.17;22.25;;;8.40;99.90;;;;;;4768044;30;20047;-81
2020/12/17 06:36:06;;;;;;;40.88;21.95;;;8.50;99.90;;;;;;4768574;30;20051;-81
2020/12/17 06:38:33;;;;;;;49.20;24.20;;;8.40;99.90;;;;;;4784031;30;20055;-81
2020/12/17 06:41:16;;;;;;;44.63;22.65;;;8.50;99.90;;;;;;4769435;30;20051;-82
2020/12/17 06:43:42;;;;;;;42.63;23.38;;;8.50;99.90;;;;;;4784802;30;20926;-81
2020/12/17 06:46:34;;;;;;;55.28;24.17;;;8.50;99.90;;;;;;4768363;30;20099;-84
2020/12/17 06:49:01;;;;;;;50.63;24.88;;;8.50;99.90;;;;;;4784592;30;20544;-81
2020/12/17 06:51:47;;;;;;;51.83;24.70;;;8.50;99.90;;;;;;4758629;30;20074;-83
2020/12/17 06:54:37;;;;;;;47.28;22.60;;;8.50;99.90;;;;;;4770283;30;20066;-81
2020/12/17 06:57:10;;;;;;;;;;;8.50;99.90;;;;;;4768911;30;20063;-81
2020/12/17 06:59:41;;;;;;;44.72;22.73;;;8.50;99.90;;;;;;4783868;30;19925;-81
2020/12/17 07:02:08;;;;;;;47.92;23.23;;;8.50;99.90;;;;;;4784306;30;20122;-83
2020/12/17 07:04:44;;;;;;;45.35;22.95;;;8.60;99.90;;;;;;4767375;30;20047;-82
2020/12/17 07:07:30;;;;;;;47.85;24.05;;;8.60;99.90;;;;;;4770493;30;20588;-81
2020/12/17 07:09:56;;;;;;;44.92;23.17;;;8.50;99.90;;;;;;4768511;30;20141;-82
2020/12/17 07:12:34;;;;;;;39.50;22.23;;;8.50;99.90;;;;;;4783676;30;20130;-81
2020/12/17 07:15:37;;;;;;;43.70;22.67;;;8.60;99.90;;;;;;4757532;30;20063;-82
2020/12/17 07:18:24;;;;;;;39.08;22.85;;;8.60;99.90;;;;;;4783676;30;20111;-84
2020/12/17 07:21:01;;;;;;;37.83;22.02;;;8.60;99.90;;;;;;4782741;30;20111;-82
2020/12/17 07:23:47;;;;;;;46.67;24.20;;;8.60;99.90;;;;;;4769576;30;20059;-82
2020/12/17 07:26:16;;;;;;;39.42;22.88;;;8.70;99.90;;;;;;4751499;30;20390;-86
2020/12/17 07:28:52;;;;;;;34.83;20.95;;;8.60;99.90;;;;;;4768136;30;20057;-82
2020/12/17 07:31:24;;;;;;;37.58;19.73;;;8.60;99.90;;;;;;4767420;30;20062;-82
2020/12/17 07:33:51;;;;;;;37.13;19.27;;;8.60;99.90;;;;;;4769087;30;20082;-83
2020/12/17 07:36:17;;;;;;;31.52;19.75;;;8.60;99.90;;;;;;4770494;30;20063;-84
2020/12/17 07:39:09;;;;;;;25.77;16.85;;;8.60;99.90;;;;;;4762263;30;20129;-82
2020/12/17 07:41:35;;;;;;;29.50;18.27;;;8.60;99.90;;;;;;4755975;30;20116;-81
2020/12/17 07:44:01;;;;;;;38.13;21.05;;;8.60;99.90;;;;;;4756703;30;20055;-81
2020/12/17 07:46:41;;;;;;;30.67;17.58;;;8.60;99.90;;;;;;4770321;30;20063;-82
2020/12/17 07:49:24;;;;;;;29.60;19.20;;;8.60;99.90;;;;;;4771418;30;20130;-82
2020/12/17 07:51:50;;;;;;;28.42;17.33;;;8.60;99.90;;;;;;4787263;30;20059;-81
2020/12/17 07:54:22;;;;;;;37.50;17.70;;;8.60;99.90;;;;;;4786448;30;20196;-85
2020/12/17 07:56:49;;;;;;;23.90;15.10;;;8.60;99.90;;;;;;4753637;30;20488;-81
2020/12/17 07:59:16;;;;;;;20.15;12.77;;;8.50;99.90;;;;;;4753075;30;20047;-83
2020/12/17 08:01:41;;;;;;;20.23;14.05;;;8.50;99.90;;;;;;4764734;30;20061;-81
2020/12/17 08:04:10;;;;;;;22.33;14.50;;;8.50;99.90;;;;;;4770972;30;20487;-82
2020/12/17 08:06:36;;;;;;;22.98;15.73;;;8.40;99.90;;;;;;4779588;30;20633;-82
2020/12/17 08:09:04;;;;;;;22.80;15.18;;;8.40;99.90;;;;;;4771170;30;20039;-82
2020/12/17 08:11:55;;;;;;;21.38;14.93;;;8.40;99.90;;;;;;4760755;30;20573;-83
2020/12/17 08:14:40;;;;;;;22.35;13.63;;;8.30;99.90;;;;;;4748824;30;20062;-83
2020/12/17 08:17:07;;;;;;;13.68;11.48;;;8.30;99.90;;;;;;4786081;30;20047;-81
2020/12/17 08:19:34;;;;;;;15.15;10.02;;;8.30;99.90;;;;;;4770298;30;20048;-81
2020/12/17 08:22:21;;;;;;;16.45;12.32;;;8.30;99.90;;;;;;4760175;30;20599;-83
2020/12/17 08:24:47;;;;;;;15.02;10.75;;;8.30;99.90;;;;;;4770156;30;20126;-81
2020/12/17 08:27:12;;;;;;;15.48;11.75;;;8.20;99.90;;;;;;4770084;30;20189;-81
2020/12/17 08:29:38;;;;;;;16.90;10.00;;;8.30;99.90;;;;;;4785525;30;20055;-82
2020/12/17 08:32:08;;;;;;;19.80;10.85;;;8.20;99.90;;;;;;4770225;30;20051;-82
2020/12/17 08:34:54;;;;;;;16.92;11.43;;;8.30;99.90;;;;;;4773153;30;20503;-81
2020/12/17 08:37:43;;;;;;;16.10;11.85;;;8.20;99.90;;;;;;4772167;30;20833;-82
2020/12/17 08:40:11;;;;;;;23.65;13.13;;;8.20;99.90;;;;;;4755484;30;20111;-81
2020/12/17 08:43:10;;;;;;;20.65;12.50;;;8.20;99.90;;;;;;4757506;30;20047;-82
2020/12/17 08:45:40;;;;;;;17.50;12.25;;;8.20;99.90;;;;;;4750793;30;20054;-82
2020/12/17 08:48:14;;;;;;;21.02;11.57;;;8.20;99.90;;;;;;4767856;30;20408;-82
2020/12/17 08:51:00;;;;;;;21.05;11.93;;;8.20;99.90;;;;;;4769361;30;20483;-82
2020/12/17 08:53:28;;;;;;;15.88;10.85;;;8.20;99.90;;;;;;4751431;30;20090;-83
2020/12/17 08:56:10;;;;;;;16.55;11.43;;;8.20;99.90;;;;;;4766628;30;20126;-82
2020/12/17 08:59:05;;;;;;;14.25;9.85;;;8.20;99.90;;;;;;4767084;30;20134;-83
2020/12/17 09:01:33;;;;;;;19.88;11.10;;;8.20;99.90;;;;;;4765916;30;20116;-82
2020/12/17 09:04:04;;;;;;;13.23;9.40;;;8.20;99.90;;;;;;4782786;30;20304;-81
2020/12/17 09:06:51;;;;;;;13.95;9.55;;;8.20;99.90;;;;;;4769758;30;20066;-83
2020/12/17 09:09:25;;;;;;;14.75;10.02;;;8.20;99.90;;;;;;4784160;30;20043;-82
2020/12/17 09:11:55;;;;;;;11.68;9.30;;;8.30;99.90;;;;;;4769221;30;20047;-81
2020/12/17 09:14:31;;;;;;;14.18;9.32;;;8.30;99.90;;;;;;4769292;30;20048;-85
2020/12/17 09:17:11;;;;;;;9.10;6.97;;;8.30;99.90;;;;;;4783008;30;20603;-82
2020/12/17 09:19:57;;;;;;;12.00;8.15;;;8.30;99.90;;;;;;4772029;30;20492;-82
2020/12/17 09:22:42;;;;;;;8.98;6.20;;;8.30;99.90;;;;;;4746683;30;20156;-82
2020/12/17 09:25:08;;;;;;;9.90;7.30;;;8.40;99.90;;;;;;4769692;30;20118;-83
2020/12/17 09:27:36;;;;;;;9.15;6.70;;;8.30;99.90;;;;;;4717903;30;20071;-82
2020/12/17 09:30:17;;;;;;;8.98;7.70;;;8.30;99.90;;;;;;4763616;30;20090;-83
2020/12/17 09:33:16;;;;;;;11.73;7.50;;;8.30;99.90;;;;;;4749830;30;20050;-83
2020/12/17 09:35:42;;;;;;;11.25;7.10;;;8.40;99.90;;;;;;4739023;30;20139;-83
2020/12/17 09:38:12;;;;;;;10.27;7.07;;;8.50;99.90;;;;;;4746231;30;20544;-83
2020/12/17 09:40:44;;;;;;;14.20;7.68;;;8.50;99.90;;;;;;4749863;30;20055;-83
2020/12/17 09:43:15;;;;;;;13.68;8.18;;;8.50;99.90;;;;;;4749813;30;20381;-82
2020/12/17 09:45:42;;;;;;;;;;;8.60;99.90;;;;;;4763323;30;20051;-83
2020/12/17 09:48:30;;;;;;;13.80;9.43;;;8.50;99.90;;;;;;4738658;30;20394;-82
2020/12/17 09:51:07;;;;;;;14.65;9.90;;;8.60;99.90;;;;;;4765477;30;20072;-83
2020/12/17 09:53:38;;;;;;;16.92;9.45;;;8.60;99.90;;;;;;4748202;30;20095;-82
2020/12/17 09:56:11;;;;;;;11.20;9.20;;;8.60;99.90;;;;;;4749821;30;20047;-81
2020/12/17 09:58:42;;;;;;;11.13;9.00;;;8.70;99.90;;;;;;4747883;30;20255;-82
2020/12/17 10:01:07;;;;;;;16.05;10.38;;;8.70;99.90;;;;;;4765991;30;20044;-83
2020/12/17 10:03:54;;;;;;;17.80;12.05;;;8.70;99.90;;;;;;4726421;30;20432;-82
2020/12/17 10:06:19;;;;;;;13.57;10.93;;;8.70;99.90;;;;;;4765972;30;20040;-83
2020/12/17 10:08:45;;;;;;;13.77;10.20;;;8.70;99.90;;;;;;4748618;30;20540;-82
2020/12/17 10:11:12;;;;;;;12.68;9.68;;;8.80;99.90;;;;;;4732601;30;20463;-83
2020/12/17 10:13:58;;;;;;;14.75;10.38;;;8.80;99.90;;;;;;4728133;30;20131;-83
2020/12/17 10:16:46;;;;;;;16.00;11.43;;;8.80;99.90;;;;;;4720165;30;20587;-82
2020/12/17 10:19:12;;;;;;;12.88;9.70;;;8.80;99.90;;;;;;4761585;30;20136;-81
2020/12/17 10:21:38;;;;;;;13.38;10.15;;;8.80;99.90;;;;;;4764779;30;20055;-81
2020/12/17 10:24:05;;;;;;;16.30;11.35;;;8.90;99.90;;;;;;4749717;30;20051;-81
2020/12/17 10:26:33;;;;;;;11.27;9.65;;;8.90;99.90;;;;;;4744058;30;20047;-82
2020/12/17 10:28:59;;;;;;;13.32;10.05;;;8.90;99.90;;;;;;4747812;30;20120;-83
2020/12/17 10:31:27;;;;;;;12.02;9.40;;;8.90;99.90;;;;;;4749315;30;20051;-81
2020/12/17 10:33:53;;;;;;;13.15;10.15;;;8.90;99.90;;;;;;4762830;30;20047;-82
2020/12/17 10:36:39;;;;;;;14.85;10.18;;;8.90;99.90;;;;;;4738036;30;20141;-82
2020/12/17 10:39:07;;;;;;;13.98;10.48;;;8.90;99.90;;;;;;4749079;30;20188;-82
2020/12/17 10:41:53;;;;;;;13.38;10.63;;;9.00;99.90;;;;;;4738285;30;20346;-82
2020/12/17 10:44:39;;;;;;;12.23;10.43;;;9.00;99.90;;;;;;4749507;30;20060;-83
2020/12/17 10:47:25;;;;;;;13.73;11.13;;;9.10;99.90;;;;;;4740269;30;20060;-83
2020/12/17 10:49:51;;;;;;;13.63;12.02;;;9.00;99.90;;;;;;4722195;30;20971;-84
2020/12/17 10:52:18;;;;;;;17.20;13.20;;;9.00;99.90;;;;;;4748959;30;20095;-82
2020/12/17 10:54:43;;;;;;;18.02;11.75;;;9.00;99.90;;;;;;4748568;30;20051;-82
2020/12/17 10:57:29;;;;;;;16.65;12.13;;;9.00;99.90;;;;;;4738642;30;20108;-87
2020/12/17 10:59:55;;;;;;;15.40;12.60;;;9.00;99.90;;;;;;4754172;30;20059;-82
2020/12/17 11:02:21;;;;;;;15.13;11.40;;;9.00;99.90;;;;;;4756826;30;20055;-82
2020/12/17 11:04:47;;;;;;;14.15;11.55;;;9.00;99.90;;;;;;4751647;30;20043;-82
2020/12/17 11:07:13;;;;;;;13.77;12.23;;;9.10;99.90;;;;;;4764956;30;20464;-82
2020/12/17 11:09:39;;;;;;;12.80;11.50;;;9.10;99.90;;;;;;4753646;30;20130;-83
2020/12/17 11:12:05;;;;;;;13.88;12.18;;;9.10;99.90;;;;;;4750752;30;20126;-82
2020/12/17 11:14:30;;;;;;;14.60;13.10;;;9.10;99.90;;;;;;4734301;30;20138;-84
2020/12/17 11:16:56;;;;;;;16.48;12.32;;;9.10;99.90;;;;;;4734221;30;20823;-81
2020/12/17 11:19:22;;;;;;;15.95;12.57;;;9.10;99.90;;;;;;4765237;30;20047;-81
2020/12/17 11:21:48;;;;;;;14.77;13.13;;;9.10;99.90;;;;;;4734207;30;20052;-81
2020/12/17 11:24:14;;;;;;;15.90;12.10;;;9.20;99.90;;;;;;4765579;30;20052;-81
2020/12/17 11:26:42;;;;;;;15.10;13.50;;;9.20;99.90;;;;;;4764690;30;20069;-81
2020/12/17 11:29:08;;;;;;;18.85;14.10;;;9.30;99.90;;;;;;4765383;30;20118;-81
2020/12/17 11:31:34;;;;;;;15.52;13.57;;;9.30;99.90;;;;;;4748813;30;20048;-84
2020/12/17 11:34:20;;;;;;;16.83;14.95;;;9.30;99.90;;;;;;4737424;30;20056;-82
2020/12/17 11:37:06;;;;;;;14.98;13.48;;;9.30;99.90;;;;;;4736052;30;20134;-81
2020/12/17 11:39:31;;;;;;;14.10;12.73;;;9.30;99.90;;;;;;4764914;30;20123;-81
2020/12/17 11:41:57;;;;;;;17.60;13.85;;;9.30;99.90;;;;;;4733205;30;20051;-81
2020/12/17 11:44:25;;;;;;;21.20;15.48;;;9.30;99.90;;;;;;4747674;30;20140;-82
2020/12/17 11:46:52;;;;;;;16.10;13.55;;;9.30;99.90;;;;;;4747420;30;20051;-83
2020/12/17 11:49:37;;;;;;;15.23;12.98;;;9.30;99.90;;;;;;4738085;30;20062;-85
2020/12/17 11:52:03;;;;;;;16.25;13.35;;;9.30;99.90;;;;;;4747923;30;20063;-81
2020/12/17 11:54:49;;;;;;;18.50;14.10;;;9.30;99.90;;;;;;4737552;30;20059;-81
2020/12/17 11:57:15;;;;;;;17.17;14.13;;;9.30;99.90;;;;;;4734562;30;20142;-83
2020/12/17 11:59:40;;;;;;;14.43;13.00;;;9.30;99.90;;;;;;4749034;30;20055;-82
2020/12/17 12:02:06;;;;;;;19.80;15.55;;;9.30;99.90;;;;;;4735601;30;20051;-81
2020/12/17 12:04:32;;;;;;;20.67;14.65;;;9.40;99.90;;;;;;4748595;30;20130;-81
2020/12/17 12:06:58;;;;;;;20.52;12.85;;;9.40;99.90;;;;;;4749276;30;20067;-83
2020/12/17 12:09:24;;;;;;;13.23;11.82;;;9.40;99.90;;;;;;4734877;30;20078;-81
2020/12/17 12:12:10;;;;;;;16.52;13.85;;;9.40;99.90;;;;;;4740602;30;20095;-82
2020/12/17 12:14:37;;;;;;;19.48;12.85;;;9.40;99.90;;;;;;4734553;30;20140;-85
2020/12/17 12:17:23;;;;;;;16.33;12.55;;;9.40;99.90;;;;;;4726848;30;20051;-81
2020/12/17 12:19:49;;;;;;;20.42;13.40;;;9.40;99.90;;;;;;4764643;30;20051;-80
2020/12/17 12:22:15;;;;;;;15.43;13.30;;;9.40;99.90;;;;;;4752085;30;20454;-81
2020/12/17 12:25:01;;;;;;;17.48;13.23;;;9.50;99.90;;;;;;4751567;30;20300;-81
2020/12/17 12:27:26;;;;;;;16.92;13.55;;;9.40;99.90;;;;;;4766719;30;20504;-82
2020/12/17 12:29:52;;;;;;;17.67;13.50;;;9.50;99.90;;;;;;4767283;30;20052;-81
2020/12/17 12:32:38;;;;;;;22.77;12.65;;;9.50;99.90;;;;;;4724966;30;20052;-85
2020/12/17 12:35:04;;;;;;;19.33;14.13;;;9.40;99.90;;;;;;4764362;30;20087;-85
2020/12/17 12:37:30;;;;;;;21.85;14.77;;;9.40;99.90;;;;;;4748812;30;20040;-83
2020/12/17 12:40:15;;;;;;;22.20;13.93;;;9.40;99.90;;;;;;4727904;30;20064;-84
2020/12/17 12:43:02;;;;;;;19.50;13.35;;;9.40;99.90;;;;;;4751380;30;20060;-85
2020/12/17 12:45:51;;;;;;;20.17;14.00;;;9.40;99.90;;;;;;4750877;30;20059;-82
2020/12/17 12:48:17;;;;;;;19.30;12.38;;;9.40;99.90;;;;;;4766079;30;20481;-82
2020/12/17 12:51:03;;;;;;;19.02;13.27;;;9.40;99.90;;;;;;4740706;30;20055;-83
2020/12/17 12:53:49;;;;;;;17.98;11.45;;;9.50;99.90;;;;;;4741654;30;20055;-83
2020/12/17 12:56:23;;;;;;;18.35;11.18;;;9.50;99.90;;;;;;4751470;30;20848;-83
2020/12/17 12:58:49;;;;;;;15.70;10.77;;;9.40;99.90;;;;;;4767039;30;20048;-83
2020/12/17 13:01:14;;;;;;;19.17;12.00;;;9.50;99.90;;;;;;4737561;30;20467;-81
2020/12/17 13:03:40;;;;;;;19.13;10.25;;;9.50;99.90;;;;;;4751597;30;20052;-85
2020/12/17 13:06:13;;;;;;;19.25;10.18;;;9.40;99.80;;;;;;4751152;30;20058;-82
2020/12/17 13:08:40;;;;;;;14.88;9.23;;;9.40;99.70;;;;;;4764937;30;20048;-86
2020/12/17 13:11:17;;;;;;;17.88;9.25;;;9.40;99.60;;;;;;4751140;30;20512;-82